Terminal Aerodrome Forecast
Issued by NWS

Home | Current Version | Previous Version | Text Only | Print | Product List | Glossary On
Versions: 1 2 3 4 5 6 7 8 9 10 11 12 13 14 15 16
941
FTUS43 KICT 270522
TAFSLN
TAF
KSLN 270522Z 2706/2806 13005KT P6SM SKC
     FM271300 15007KT P6SM SCT100
     FM271600 16010KT P6SM BKN020
     FM271800 17013KT P6SM OVC025
     FM272300 17012KT P6SM SCT022=

USA.gov is the U.S. government's official web portal to all federal, state and local government web resources and services.